Maldives Meteorological Service

TAFS

Station TAF
VRMM
VRMM 190500Z 1906/2012 25010KT 9999 FEW017TCU TEMPO 1906/1912 27018G32KT 4000 TSRA FEW016CB=
VRMH
VRMH 190500Z 1906/2006 27012KT 9999 FEW017TCU TEMPO 1906/1912 27018G32KT 4000 TSRA FEW016CB=
VRMK
VRMK 190500Z 1906/2006 22007KT 9999 FEW017TCU TEMPO 1906/1912 4000 TSRA FEW017CB=
VRMT
VRMT 190500Z 1906/2006 22007KT 9999 FEW018TCU TEMPO 1908/1914 5000 -TSRA FEW017CB=
VRMG
VRMG 190500Z 1906/2012 22008KT 9999 FEW018TCU TEMPO 1908/1914 5000 -TSRA FEW017CB=